createdAt,value
2023-02-09T00:02:16.037Z,5.77
2023-02-09T00:04:42.705Z,6.20
2023-02-09T00:07:09.271Z,6.30
2023-02-09T00:09:35.880Z,5.77
2023-02-09T00:12:34.902Z,8.27
2023-02-09T00:15:01.692Z,7.37
2023-02-09T00:17:28.666Z,6.17
2023-02-09T00:19:55.377Z,5.77
2023-02-09T00:22:22.141Z,5.97
2023-02-09T00:24:48.744Z,8.97
2023-02-09T00:27:15.481Z,8.03
2023-02-09T00:29:42.144Z,5.50
2023-02-09T00:32:08.842Z,8.00
2023-02-09T00:34:35.525Z,5.60
2023-02-09T00:37:02.144Z,8.10
2023-02-09T00:39:29.534Z,8.00
2023-02-09T00:42:08.222Z,7.87
2023-02-09T00:44:36.429Z,8.00
2023-02-09T00:47:04.111Z,6.83
2023-02-09T00:49:31.174Z,5.83
2023-02-09T00:51:57.969Z,8.37
2023-02-09T00:54:25.137Z,8.27
2023-02-09T00:56:51.869Z,6.83
2023-02-09T00:59:18.576Z,10.50
2023-02-09T01:01:45.372Z,7.63
2023-02-09T01:04:11.992Z,6.37
2023-02-09T01:06:38.817Z,6.93
2023-02-09T01:09:05.405Z,8.30
2023-02-09T01:11:32.144Z,7.50
2023-02-09T01:13:59.405Z,7.63
2023-02-09T01:16:29.013Z,9.67
2023-02-09T01:18:56.203Z,8.50
2023-02-09T01:21:24.158Z,6.87
2023-02-09T01:23:50.835Z,8.40
2023-02-09T01:26:18.001Z,7.83
2023-02-09T01:28:44.956Z,7.97
2023-02-09T01:31:38.229Z,7.70
2023-02-09T01:34:05.015Z,7.87
2023-02-09T01:36:32.830Z,7.97
2023-02-09T01:39:01.620Z,8.40
2023-02-09T01:41:28.953Z,7.63
2023-02-09T01:43:57.369Z,10.33
2023-02-09T01:46:25.964Z,9.57
2023-02-09T01:48:57.314Z,8.13
2023-02-09T01:51:24.872Z,6.90
2023-02-09T01:53:51.767Z,10.47
2023-02-09T01:56:22.968Z,8.30
2023-02-09T01:58:49.788Z,7.40
2023-02-09T02:01:16.849Z,8.90
2023-02-09T02:03:44.310Z,7.63
2023-02-09T02:06:13.305Z,9.53
2023-02-09T02:08:51.779Z,9.10
2023-02-09T02:11:18.592Z,8.33
2023-02-09T02:13:45.254Z,9.53
2023-02-09T02:16:34.109Z,8.67
2023-02-09T02:19:33.039Z,7.43
2023-02-09T02:22:32.995Z,8.63
2023-02-09T02:25:11.525Z,8.23
2023-02-09T02:27:49.284Z,7.93
2023-02-09T02:30:37.721Z,8.30
2023-02-09T02:33:13.056Z,9.80
2023-02-09T02:35:55.702Z,11.77
2023-02-09T02:38:28.368Z,8.90
2023-02-09T02:41:01.552Z,7.47
2023-02-09T02:44:09.313Z,10.53
2023-02-09T02:46:41.053Z,9.70
2023-02-09T02:49:15.089Z,8.07
2023-02-09T02:51:47.085Z,10.27
2023-02-09T02:54:18.379Z,9.30
2023-02-09T02:56:49.940Z,12.13
2023-02-09T02:59:20.067Z,10.17
2023-02-09T03:01:54.031Z,8.07
2023-02-09T03:04:21.270Z,10.40
2023-02-09T03:06:47.906Z,9.67
2023-02-09T03:09:17.822Z,10.87
2023-02-09T03:11:46.746Z,9.87
2023-02-09T03:14:42.154Z,8.87
2023-02-09T03:20:59.562Z,10.77
2023-02-09T03:23:43.676Z,10.87
2023-02-09T03:26:15.035Z,9.63
2023-02-09T03:28:43.204Z,10.67
2023-02-09T03:31:10.257Z,9.50
2023-02-09T03:33:38.357Z,9.23
2023-02-09T03:36:10.041Z,10.57
2023-02-09T03:38:36.680Z,11.37
2023-02-09T03:41:03.694Z,9.47
2023-02-09T03:43:49.039Z,11.40
2023-02-09T03:46:15.714Z,10.73
2023-02-09T03:48:42.429Z,10.67
2023-02-09T03:51:09.025Z,10.37
2023-02-09T03:53:36.780Z,9.37
2023-02-09T03:56:04.706Z,10.60
2023-02-09T03:58:31.645Z,9.53
2023-02-09T04:01:07.800Z,11.80
2023-02-09T04:03:34.943Z,10.50
2023-02-09T04:06:01.663Z,10.67
2023-02-09T04:08:30.177Z,10.20
2023-02-09T04:10:59.829Z,10.93
2023-02-09T04:13:26.513Z,9.53
2023-02-09T04:15:53.180Z,11.57
2023-02-09T04:18:19.901Z,12.67
2023-02-09T04:20:46.980Z,10.03
2023-02-09T04:23:14.178Z,10.77
2023-02-09T04:25:40.886Z,10.57
2023-02-09T04:28:07.632Z,12.27
2023-02-09T04:30:34.268Z,10.77
2023-02-09T04:33:00.948Z,10.43
2023-02-09T04:35:27.568Z,12.20
2023-02-09T04:37:54.174Z,13.10
2023-02-09T04:40:20.996Z,10.10
2023-02-09T04:42:47.957Z,12.17
2023-02-09T04:45:14.699Z,12.53
2023-02-09T04:47:41.463Z,10.50
2023-02-09T04:50:08.490Z,11.47
2023-02-09T04:52:35.144Z,9.83
2023-02-09T04:55:01.788Z,10.10
2023-02-09T04:57:47.057Z,9.80
2023-02-09T05:00:14.121Z,12.00
2023-02-09T05:02:40.756Z,11.30
2023-02-09T05:05:07.468Z,10.50
2023-02-09T05:07:34.080Z,9.67
2023-02-09T05:10:00.801Z,13.87
2023-02-09T05:12:27.422Z,13.73
2023-02-09T05:14:54.046Z,11.40
2023-02-09T05:17:21.318Z,13.60
2023-02-09T05:19:48.726Z,11.80
2023-02-09T05:22:15.477Z,12.30
2023-02-09T05:24:42.050Z,11.80
2023-02-09T05:27:08.655Z,13.03
2023-02-09T05:29:35.307Z,11.43
2023-02-09T05:32:01.982Z,14.33
2023-02-09T05:34:28.686Z,9.23
2023-02-09T05:36:55.280Z,12.90
2023-02-09T05:39:22.268Z,13.33
2023-02-09T05:42:07.548Z,13.37
2023-02-09T05:44:34.251Z,12.30
2023-02-09T05:47:01.176Z,10.40
2023-02-09T05:49:27.823Z,11.63
2023-02-09T05:51:54.482Z,10.63
2023-02-09T05:54:21.210Z,11.97
2023-02-09T05:56:48.136Z,12.17
2023-02-09T05:59:14.787Z,12.40
2023-02-09T06:01:41.500Z,11.23
2023-02-09T06:04:09.253Z,12.53
2023-02-09T06:06:36.166Z,12.47
2023-02-09T06:09:03.708Z,12.17
2023-02-09T06:11:30.305Z,13.83
2023-02-09T06:13:57.054Z,12.47
2023-02-09T06:16:23.906Z,11.93
2023-02-09T06:18:50.599Z,10.17
2023-02-09T06:21:17.733Z,11.43
2023-02-09T06:23:44.662Z,13.17
2023-02-09T06:26:13.216Z,16.17
2023-02-09T06:28:40.421Z,13.17
2023-02-09T06:31:07.571Z,10.60
2023-02-09T06:33:35.517Z,13.47
2023-02-09T06:36:02.310Z,12.77
2023-02-09T06:38:33.290Z,13.97
2023-02-09T06:41:00.169Z,11.57
2023-02-09T06:43:27.243Z,14.90
2023-02-09T06:46:08.274Z,11.43
2023-02-09T06:48:35.536Z,13.60
2023-02-09T06:51:02.308Z,12.27
2023-02-09T06:53:28.974Z,14.30
2023-02-09T06:56:01.561Z,13.83
2023-02-09T06:58:28.795Z,14.13
2023-02-09T07:00:55.402Z,16.23
2023-02-09T07:03:22.049Z,13.23
2023-02-09T07:05:48.644Z,14.33
2023-02-09T07:08:20.283Z,12.37
2023-02-09T07:10:47.332Z,12.87
2023-02-09T07:13:14.145Z,13.10
2023-02-09T07:15:40.834Z,14.10
2023-02-09T07:18:07.503Z,14.30
2023-02-09T07:20:34.178Z,16.23
2023-02-09T07:23:01.790Z,14.63
2023-02-09T07:25:28.410Z,14.13
2023-02-09T07:27:55.042Z,13.80
2023-02-09T07:30:21.687Z,13.70
2023-02-09T07:32:49.765Z,15.07
2023-02-09T07:35:16.506Z,14.57
2023-02-09T07:37:43.117Z,14.97
2023-02-09T07:40:11.449Z,13.83
2023-02-09T07:42:38.069Z,16.43
2023-02-09T07:45:05.019Z,12.17
2023-02-09T07:47:31.718Z,13.80
2023-02-09T07:49:58.416Z,16.93
2023-02-09T07:52:25.168Z,16.93
2023-02-09T07:54:53.883Z,14.00
2023-02-09T07:57:20.557Z,15.80
2023-02-09T07:59:47.262Z,15.07
2023-02-09T08:02:19.187Z,16.77
2023-02-09T08:04:48.300Z,14.03
2023-02-09T08:07:15.074Z,16.97
2023-02-09T08:09:45.191Z,15.43
2023-02-09T08:12:25.571Z,14.23
2023-02-09T08:14:52.431Z,17.73
2023-02-09T08:17:20.661Z,15.37
2023-02-09T08:19:54.853Z,14.30
2023-02-09T08:22:23.352Z,15.40
2023-02-09T08:24:50.036Z,17.87
2023-02-09T08:27:16.844Z,16.00
2023-02-09T08:29:43.592Z,15.67
2023-02-09T08:32:10.321Z,17.67
2023-02-09T08:34:37.023Z,15.03
2023-02-09T08:37:03.634Z,15.90
2023-02-09T08:39:30.410Z,13.33
2023-02-09T08:41:57.150Z,16.43
2023-02-09T08:44:23.898Z,14.33
2023-02-09T08:46:50.646Z,14.20
2023-02-09T08:49:17.421Z,15.20
2023-02-09T08:51:44.030Z,15.13
2023-02-09T08:54:10.770Z,16.87
2023-02-09T08:56:37.440Z,15.30
2023-02-09T08:59:05.054Z,15.60
2023-02-09T09:01:32.192Z,16.80
2023-02-09T09:03:58.951Z,16.83
2023-02-09T09:06:27.113Z,15.77
2023-02-09T09:08:53.697Z,16.53
2023-02-09T09:11:20.937Z,18.43
2023-02-09T09:13:48.388Z,15.70
2023-02-09T09:16:20.220Z,16.03
2023-02-09T09:18:47.167Z,17.07
2023-02-09T09:21:15.122Z,21.60
2023-02-09T09:23:42.497Z,17.47
2023-02-09T09:26:09.445Z,15.67
2023-02-09T09:28:36.325Z,18.77
2023-02-09T09:31:15.007Z,16.60
2023-02-09T09:33:42.393Z,16.50
2023-02-09T09:36:09.638Z,13.87
2023-02-09T09:38:37.474Z,18.07
2023-02-09T09:41:05.493Z,19.03
2023-02-09T09:43:37.772Z,15.57
2023-02-09T09:46:06.439Z,15.83
2023-02-09T09:48:54.360Z,16.97
2023-02-09T09:51:44.822Z,17.20
2023-02-09T09:54:21.912Z,16.10
2023-02-09T09:56:50.473Z,15.83
2023-02-09T09:59:20.769Z,16.53
2023-02-09T10:01:50.505Z,16.43
2023-02-09T10:04:17.330Z,16.70
2023-02-09T10:06:46.200Z,14.23
2023-02-09T10:09:23.911Z,16.97
2023-02-09T10:12:25.028Z,17.40
2023-02-09T10:14:51.649Z,15.10
2023-02-09T10:17:18.277Z,14.27
2023-02-09T10:19:59.909Z,13.63
2023-02-09T10:22:26.663Z,13.80
2023-02-09T10:24:53.326Z,17.97
2023-02-09T10:27:29.241Z,13.57
2023-02-09T10:29:56.941Z,13.63
2023-02-09T10:32:29.496Z,14.63
2023-02-09T10:34:57.985Z,13.60
2023-02-09T10:37:27.294Z,16.73
2023-02-09T10:40:07.833Z,15.83
2023-02-09T10:46:43.323Z,13.30
2023-02-09T10:49:28.116Z,13.40
2023-02-09T10:52:14.991Z,13.67
2023-02-09T10:54:43.727Z,14.50
2023-02-09T10:57:27.032Z,14.40
2023-02-09T11:00:01.865Z,16.33
2023-02-09T11:02:35.155Z,17.23
2023-02-09T11:05:02.467Z,14.37
2023-02-09T11:07:34.631Z,13.63
2023-02-09T11:10:02.158Z,15.40
2023-02-09T11:12:29.549Z,16.87
2023-02-09T11:14:56.262Z,12.67
2023-02-09T11:17:27.104Z,16.17
2023-02-09T11:19:59.967Z,14.20
2023-02-09T11:22:57.577Z,16.27
2023-02-09T11:25:32.884Z,13.30
2023-02-09T11:28:18.299Z,15.10
2023-02-09T11:30:57.677Z,14.40
2023-02-09T11:33:35.138Z,13.77
2023-02-09T11:36:14.303Z,14.83
2023-02-09T11:38:47.482Z,14.03
2023-02-09T11:41:35.789Z,15.40
2023-02-09T11:44:03.103Z,17.10
2023-02-09T11:46:32.037Z,13.00
2023-02-09T11:49:03.929Z,19.83
2023-02-09T11:51:34.696Z,14.97
2023-02-09T11:54:09.426Z,14.43
2023-02-09T11:56:41.648Z,16.10
2023-02-09T11:59:21.899Z,15.70
2023-02-09T12:02:16.523Z,14.63
2023-02-09T12:04:55.014Z,13.23
2023-02-09T12:07:49.249Z,16.17
2023-02-09T12:10:33.064Z,17.90
2023-02-09T12:13:26.988Z,15.27
2023-02-09T12:15:56.787Z,12.20
2023-02-09T12:18:26.252Z,13.90
2023-02-09T12:20:57.298Z,13.43
2023-02-09T12:23:34.428Z,15.57
2023-02-09T12:26:02.597Z,13.97
2023-02-09T12:28:35.176Z,13.63
2023-02-09T12:31:03.701Z,12.77
2023-02-09T12:33:34.655Z,17.77
2023-02-09T12:36:17.459Z,13.90
2023-02-09T12:38:53.505Z,15.43
2023-02-09T12:41:32.209Z,17.53
2023-02-09T12:44:25.248Z,12.93
2023-02-09T12:46:54.796Z,14.47
2023-02-09T12:49:27.731Z,13.07
2023-02-09T12:52:03.538Z,13.67
2023-02-09T12:54:53.973Z,14.53
2023-02-09T12:57:26.105Z,10.77
2023-02-09T12:59:54.404Z,12.77
2023-02-09T13:02:25.770Z,12.43
2023-02-09T13:05:09.879Z,14.03
2023-02-09T13:07:48.844Z,13.07
2023-02-09T13:10:39.164Z,14.47
2023-02-09T13:13:07.919Z,13.37
2023-02-09T13:15:48.149Z,19.30
2023-02-09T13:18:54.369Z,17.00
2023-02-09T13:21:52.520Z,15.83
2023-02-09T13:24:35.578Z,16.13
2023-02-09T13:27:02.912Z,13.83
2023-02-09T13:29:31.467Z,14.27
2023-02-09T13:32:20.571Z,12.83
2023-02-09T13:35:09.669Z,14.57
2023-02-09T13:37:46.975Z,15.80
2023-02-09T13:40:25.265Z,15.87
2023-02-09T13:43:17.473Z,12.07
2023-02-09T13:45:49.726Z,15.37
2023-02-09T13:48:24.912Z,11.90
2023-02-09T13:50:53.333Z,11.93
2023-02-09T13:53:24.336Z,11.87
2023-02-09T13:55:52.246Z,15.50
2023-02-09T13:58:45.382Z,10.70
2023-02-09T14:01:15.357Z,14.27
2023-02-09T14:03:56.732Z,9.90
2023-02-09T14:06:40.629Z,10.00
2023-02-09T14:09:15.721Z,11.43
2023-02-09T14:11:58.876Z,9.97
2023-02-09T14:14:28.681Z,11.50
2023-02-09T14:17:33.797Z,14.00
2023-02-09T14:20:01.027Z,10.30
2023-02-09T14:22:35.422Z,11.53
2023-02-09T14:25:15.816Z,16.77
2023-02-09T14:27:47.019Z,13.40
2023-02-09T14:30:20.590Z,13.27
2023-02-09T14:32:52.092Z,9.83
2023-02-09T14:35:26.963Z,13.70
2023-02-09T14:37:55.528Z,13.87
2023-02-09T14:40:34.641Z,11.50
2023-02-09T14:43:10.355Z,11.87
2023-02-09T14:45:43.611Z,11.40
2023-02-09T14:48:20.438Z,10.13
2023-02-09T14:50:53.666Z,10.57
2023-02-09T14:53:21.994Z,17.40
2023-02-09T14:55:48.897Z,14.43
2023-02-09T14:58:21.725Z,9.10
2023-02-09T15:00:49.296Z,10.53
2023-02-09T15:03:16.088Z,10.43
2023-02-09T15:05:43.248Z,14.50
2023-02-09T15:08:18.177Z,9.53
2023-02-09T15:10:58.106Z,10.70
2023-02-09T15:13:25.102Z,13.07
2023-02-09T15:15:51.840Z,10.57
2023-02-09T15:18:20.666Z,9.93
2023-02-09T15:20:47.767Z,11.77
2023-02-09T15:23:14.933Z,12.43
2023-02-09T15:25:42.110Z,9.70
2023-02-09T15:28:31.326Z,12.13
2023-02-09T15:30:59.029Z,9.57
2023-02-09T15:33:27.525Z,13.50
2023-02-09T15:35:54.301Z,13.43
2023-02-09T15:38:21.143Z,13.07
2023-02-09T15:41:08.699Z,13.47
2023-02-09T15:43:59.942Z,12.53
2023-02-09T15:46:45.365Z,10.37
2023-02-09T15:49:12.395Z,14.27
2023-02-09T15:51:39.943Z,13.67
2023-02-09T15:54:14.805Z,11.63
2023-02-09T15:56:41.757Z,10.87
2023-02-09T15:59:20.743Z,13.03
2023-02-09T16:01:47.725Z,11.67
2023-02-09T16:04:15.240Z,13.80
2023-02-09T16:06:49.898Z,12.70
2023-02-09T16:09:23.052Z,13.23
2023-02-09T16:11:49.769Z,10.73
2023-02-09T16:14:20.550Z,11.33
2023-02-09T16:16:48.107Z,12.50
2023-02-09T16:19:14.998Z,14.37
2023-02-09T16:21:43.365Z,11.40
2023-02-09T16:24:19.258Z,11.97
2023-02-09T16:26:46.166Z,11.37
2023-02-09T16:29:14.780Z,12.03
2023-02-09T16:31:41.570Z,15.17
2023-02-09T16:34:09.589Z,12.43
2023-02-09T16:36:37.055Z,11.13
2023-02-09T16:39:03.877Z,15.57
2023-02-09T16:41:50.589Z,12.73
2023-02-09T16:44:23.823Z,12.43
2023-02-09T16:46:55.141Z,14.47
2023-02-09T16:49:29.711Z,13.10
2023-02-09T16:51:58.180Z,14.70
2023-02-09T16:54:24.980Z,12.57
2023-02-09T16:56:57.761Z,12.17
2023-02-09T16:59:24.516Z,12.17
2023-02-09T17:01:52.011Z,12.13
2023-02-09T17:04:18.858Z,16.87
2023-02-09T17:06:47.438Z,14.83
2023-02-09T17:09:17.180Z,15.67
2023-02-09T17:11:43.959Z,16.00
2023-02-09T17:14:12.507Z,17.40
2023-02-09T17:16:43.402Z,15.80
2023-02-09T17:19:15.503Z,14.23
2023-02-09T17:21:42.764Z,17.33
2023-02-09T17:24:15.325Z,12.80
2023-02-09T17:26:42.678Z,13.43
2023-02-09T17:29:09.853Z,15.30
2023-02-09T17:31:52.008Z,13.47
2023-02-09T17:34:20.829Z,12.23
2023-02-09T17:36:47.714Z,15.67
2023-02-09T17:39:14.583Z,14.80
2023-02-09T17:41:44.929Z,17.13
2023-02-09T17:44:24.277Z,15.50
2023-02-09T17:46:55.840Z,15.40
2023-02-09T17:49:22.805Z,15.27
2023-02-09T17:51:49.890Z,18.17
2023-02-09T17:54:19.017Z,15.40
2023-02-09T17:56:46.464Z,15.93
2023-02-09T17:59:14.932Z,16.83
2023-02-09T18:01:46.957Z,15.40
2023-02-09T18:04:19.412Z,17.50
2023-02-09T18:06:46.724Z,15.33
2023-02-09T18:09:14.120Z,20.63
2023-02-09T18:12:17.692Z,17.73
2023-02-09T18:14:44.410Z,16.77
2023-02-09T18:17:13.450Z,16.60
2023-02-09T18:19:40.897Z,17.20
2023-02-09T18:22:07.720Z,18.27
2023-02-09T18:24:35.054Z,15.60
2023-02-09T18:27:10.328Z,14.97
2023-02-09T18:29:37.185Z,15.23
2023-02-09T18:32:04.281Z,16.93
2023-02-09T18:34:31.369Z,17.03
2023-02-09T18:36:58.024Z,19.00
2023-02-09T18:39:24.796Z,16.03
2023-02-09T18:41:54.756Z,19.67
2023-02-09T18:44:29.351Z,19.00
2023-02-09T18:46:57.566Z,18.43
2023-02-09T18:49:24.390Z,22.80
2023-02-09T18:51:52.323Z,17.57
2023-02-09T18:54:19.119Z,16.97
2023-02-09T18:56:45.873Z,17.57
2023-02-09T18:59:12.643Z,18.63
2023-02-09T19:01:39.904Z,17.13
2023-02-09T19:04:06.645Z,17.33
2023-02-09T19:06:35.665Z,24.13
2023-02-09T19:09:02.393Z,19.33
2023-02-09T19:11:29.385Z,19.70
2023-02-09T19:14:14.559Z,22.10
2023-02-09T19:16:41.568Z,17.60
2023-02-09T19:19:09.615Z,19.73
2023-02-09T19:21:42.334Z,20.07
2023-02-09T19:24:08.977Z,17.80
2023-02-09T19:26:36.080Z,19.90
2023-02-09T19:29:02.986Z,17.33
2023-02-09T19:31:30.277Z,21.40
2023-02-09T19:33:58.209Z,21.93
2023-02-09T19:36:25.429Z,21.67
2023-02-09T19:38:53.065Z,19.97
2023-02-09T19:41:20.701Z,18.57
2023-02-09T19:43:47.446Z,20.37
2023-02-09T19:46:20.326Z,20.60
2023-02-09T19:48:47.498Z,22.03
2023-02-09T19:51:14.353Z,19.43
2023-02-09T19:53:41.189Z,24.80
2023-02-09T19:56:08.040Z,20.70
2023-02-09T19:58:37.476Z,22.73
2023-02-09T20:01:08.753Z,24.60
2023-02-09T20:03:36.379Z,22.70
2023-02-09T20:06:11.929Z,21.63
2023-02-09T20:08:39.457Z,21.13
2023-02-09T20:11:14.377Z,22.20
2023-02-09T20:13:41.802Z,20.67
2023-02-09T20:16:10.258Z,22.10
2023-02-09T20:18:37.141Z,21.70
2023-02-09T20:21:08.586Z,25.37
2023-02-09T20:23:35.920Z,24.70
2023-02-09T20:26:12.853Z,21.63
2023-02-09T20:28:39.950Z,24.57
2023-02-09T20:31:07.517Z,24.97
2023-02-09T20:33:35.677Z,23.23
2023-02-09T20:36:06.519Z,20.77
2023-02-09T20:38:33.605Z,19.77
2023-02-09T20:41:00.694Z,23.60
2023-02-09T20:43:46.937Z,24.03
2023-02-09T20:46:40.831Z,23.80
2023-02-09T20:49:08.519Z,25.07
2023-02-09T20:51:35.250Z,23.77
2023-02-09T20:54:02.297Z,24.83
2023-02-09T20:56:29.514Z,24.13
2023-02-09T20:58:56.624Z,25.73
2023-02-09T21:01:23.690Z,25.80
2023-02-09T21:03:51.278Z,24.97
2023-02-09T21:06:18.117Z,25.07
2023-02-09T21:08:44.717Z,25.57
2023-02-09T21:11:11.481Z,25.33
2023-02-09T21:13:41.168Z,23.97
2023-02-09T21:16:09.092Z,25.03
2023-02-09T21:18:36.801Z,29.90
2023-02-09T21:21:07.921Z,26.03
2023-02-09T21:23:34.890Z,27.03
2023-02-09T21:26:08.457Z,26.30
2023-02-09T21:28:36.171Z,24.33
2023-02-09T21:31:02.942Z,24.23
2023-02-09T21:33:29.654Z,25.20
2023-02-09T21:35:58.436Z,25.23
2023-02-09T21:38:25.451Z,24.40
2023-02-09T21:40:52.341Z,29.63
2023-02-09T21:43:19.005Z,32.97
2023-02-09T21:45:45.672Z,29.87
2023-02-09T21:48:12.379Z,26.77
2023-02-09T21:50:39.388Z,29.97
2023-02-09T21:53:06.039Z,30.90
2023-02-09T21:55:32.809Z,27.77
2023-02-09T21:58:00.813Z,26.80
2023-02-09T22:00:27.481Z,26.77
2023-02-09T22:02:54.909Z,31.40
2023-02-09T22:05:22.828Z,28.93
2023-02-09T22:07:50.056Z,30.20
2023-02-09T22:10:20.177Z,31.23
2023-02-09T22:12:46.843Z,32.17
2023-02-09T22:15:13.592Z,28.93
2023-02-09T22:17:40.358Z,30.77
2023-02-09T22:20:07.719Z,25.33
2023-02-09T22:22:34.403Z,30.27
2023-02-09T22:25:01.021Z,30.67
2023-02-09T22:27:27.704Z,30.63
2023-02-09T22:29:54.390Z,32.43
2023-02-09T22:32:21.021Z,28.03
2023-02-09T22:34:47.705Z,27.00
2023-02-09T22:37:14.617Z,24.73
2023-02-09T22:39:41.341Z,26.70
2023-02-09T22:42:08.157Z,27.07
2023-02-09T22:44:34.875Z,31.70
2023-02-09T22:47:01.691Z,32.10
2023-02-09T22:49:28.348Z,29.20
2023-02-09T22:51:55.029Z,31.57
2023-02-09T22:54:21.765Z,28.80
2023-02-09T22:56:48.601Z,33.30
2023-02-09T22:59:15.710Z,29.70
2023-02-09T23:01:42.953Z,26.77
2023-02-09T23:04:09.882Z,29.37
2023-02-09T23:06:36.745Z,31.53
2023-02-09T23:09:05.822Z,30.03
2023-02-09T23:11:37.629Z,29.17
2023-02-09T23:14:10.003Z,38.87
2023-02-09T23:16:38.343Z,31.43
2023-02-09T23:19:06.659Z,32.73
2023-02-09T23:21:36.014Z,31.80
2023-02-09T23:24:04.354Z,33.23
2023-02-09T23:26:31.095Z,32.13
2023-02-09T23:28:59.775Z,30.37
2023-02-09T23:31:27.146Z,30.73
2023-02-09T23:33:54.494Z,34.10
2023-02-09T23:36:23.602Z,32.33
2023-02-09T23:39:08.630Z,32.53
2023-02-09T23:41:35.482Z,34.33
2023-02-09T23:44:03.119Z,33.90
2023-02-09T23:46:29.992Z,34.97
2023-02-09T23:48:57.389Z,33.43
2023-02-09T23:51:28.512Z,35.77
2023-02-09T23:53:57.006Z,35.17
2023-02-09T23:56:24.321Z,36.33
2023-02-09T23:58:52.418Z,33.53
